createdAt,value
2022-08-07T00:00:18.569Z,97531.84
2022-08-07T00:01:44.471Z,97538.16
2022-08-07T00:02:44.693Z,97533.13
2022-08-07T00:03:47.544Z,97529.91
2022-08-07T00:04:49.506Z,97520.94
2022-08-07T00:05:53.294Z,97525.19
2022-08-07T00:06:55.900Z,97520.94
2022-08-07T00:08:03.980Z,97524.94
2022-08-07T00:09:16.305Z,97527.56
2022-08-07T00:10:26.599Z,97526.22
2022-08-07T00:11:30.086Z,97526.22
2022-08-07T00:12:35.159Z,97517.25
2022-08-07T00:13:57.104Z,97522.53
2022-08-07T00:15:01.255Z,97523.56
2022-08-07T00:16:03.510Z,97525.66
2022-08-07T00:17:06.612Z,97525.09
2022-08-07T00:18:19.319Z,97528.53
2022-08-07T00:19:26.035Z,97526.94
2022-08-07T00:20:36.581Z,97530.38
2022-08-07T00:21:57.312Z,97531.69
2022-08-07T00:23:00.203Z,97538.56
2022-08-07T00:24:02.037Z,97534.88
2022-08-07T00:25:15.741Z,97535.44
2022-08-07T00:26:48.793Z,97536.78
2022-08-07T00:27:53.305Z,97535.78
2022-08-07T00:28:57.002Z,97536.56
2022-08-07T00:29:58.979Z,97546.59
2022-08-07T00:31:01.568Z,97537.53
2022-08-07T00:32:07.846Z,97544.66
2022-08-07T00:33:10.234Z,97543.06
2022-08-07T00:34:13.467Z,97539.06
2022-08-07T00:35:21.101Z,97544.00
2022-08-07T00:36:25.075Z,97547.63
2022-08-07T00:37:30.950Z,97538.06
2022-08-07T00:38:50.487Z,97540.41
2022-08-07T00:39:54.806Z,97540.63
2022-08-07T00:40:57.011Z,97542.22
2022-08-07T00:42:02.064Z,97536.94
2022-08-07T00:43:09.906Z,97536.94
2022-08-07T00:44:12.558Z,97538.78
2022-08-07T00:45:17.001Z,97536.47
2022-08-07T00:46:19.398Z,97531.97
2022-08-07T00:48:08.783Z,97534.38
2022-08-07T00:48:43.516Z,97527.81
2022-08-07T00:50:20.670Z,97531.25
2022-08-07T00:51:08.601Z,97537.09
2022-08-07T00:52:10.813Z,97535.28
2022-08-07T00:53:13.836Z,97534.72
2022-08-07T00:54:19.748Z,97540.00
2022-08-07T00:56:00.172Z,97543.22
2022-08-07T00:56:44.957Z,97532.38
2022-08-07T00:57:55.957Z,97534.00
2022-08-07T00:58:58.241Z,97532.69
2022-08-07T01:00:00.606Z,97526.84
2022-08-07T01:01:02.755Z,97531.03
2022-08-07T01:02:14.103Z,97525.16
2022-08-07T01:03:55.738Z,97531.03
2022-08-07T01:04:52.813Z,97531.81
2022-08-07T01:05:56.313Z,97522.84
2022-08-07T01:06:58.203Z,97523.66
2022-08-07T01:08:00.041Z,97520.78
2022-08-07T01:09:02.845Z,97521.56
2022-08-07T01:10:11.209Z,97519.72
2022-08-07T01:12:09.036Z,97518.69
2022-08-07T01:12:38.032Z,97523.19
2022-08-07T01:13:41.228Z,97521.78
2022-08-07T01:15:01.456Z,97515.16
2022-08-07T01:16:06.888Z,97523.88
2022-08-07T01:17:10.200Z,97525.72
2022-08-07T01:18:17.017Z,97526.53
2022-08-07T01:19:20.899Z,97519.66
2022-08-07T01:20:35.813Z,97521.72
2022-08-07T01:21:45.611Z,97521.72
2022-08-07T01:23:00.760Z,97522.53
2022-08-07T01:24:10.363Z,97525.16
2022-08-07T01:25:53.528Z,97524.94
2022-08-07T01:26:34.910Z,97529.16
2022-08-07T01:27:37.243Z,97530.78
2022-08-07T01:28:45.815Z,97527.09
2022-08-07T01:29:48.345Z,97524.69
2022-08-07T01:30:53.196Z,97521.00
2022-08-07T01:31:59.488Z,97526.06
2022-08-07T01:33:02.312Z,97519.97
2022-08-07T01:34:06.007Z,97518.91
2022-08-07T01:35:08.178Z,97515.47
2022-08-07T01:36:12.276Z,97517.06
2022-08-07T01:37:18.961Z,97514.41
2022-08-07T01:38:25.873Z,97514.69
2022-08-07T01:39:41.351Z,97511.22
2022-08-07T01:40:49.908Z,97513.84
2022-08-07T01:42:07.305Z,97511.78
2022-08-07T01:43:16.893Z,97511.78
2022-08-07T01:44:18.748Z,97518.69
2022-08-07T01:45:22.793Z,97513.41
2022-08-07T01:46:40.311Z,97512.59
2022-08-07T01:48:17.556Z,97509.63
2022-08-07T01:49:06.198Z,97509.31
2022-08-07T01:50:08.295Z,97507.94
2022-08-07T01:52:01.009Z,97514.81
2022-08-07T01:52:34.855Z,97512.75
2022-08-07T01:54:09.152Z,97513.56
2022-08-07T01:55:02.042Z,97510.41
2022-08-07T01:56:22.960Z,97507.78
2022-08-07T01:58:05.602Z,97520.78
2022-08-07T01:59:03.360Z,97527.66
2022-08-07T02:00:13.236Z,97521.56
2022-08-07T02:01:25.547Z,97517.88
2022-08-07T02:03:18.118Z,97515.56
2022-08-07T02:04:14.084Z,97519.81
2022-08-07T02:05:43.320Z,97516.59
2022-08-07T02:06:43.366Z,97517.63
2022-08-07T02:07:51.730Z,97521.88
2022-08-07T02:08:54.603Z,97519.00
2022-08-07T02:09:58.271Z,97519.81
2022-08-07T02:11:03.477Z,97512.66
2022-08-07T02:12:17.612Z,97513.50
2022-08-07T02:13:47.033Z,97507.38
2022-08-07T02:14:50.444Z,97511.31
2022-08-07T02:15:54.249Z,97508.66
2022-08-07T02:16:57.272Z,97513.16
2022-08-07T02:18:02.033Z,97503.59
2022-08-07T02:19:05.498Z,97495.44
2022-08-07T02:20:27.310Z,97506.81
2022-08-07T02:21:56.604Z,97510.28
2022-08-07T02:22:59.682Z,97507.63
2022-08-07T02:24:02.684Z,97501.06
2022-08-07T02:25:07.221Z,97501.06
2022-08-07T02:26:32.809Z,97507.13
2022-08-07T02:27:37.271Z,97500.25
2022-08-07T02:28:43.663Z,97506.25
2022-08-07T02:29:54.391Z,97505.47
2022-08-07T02:30:58.065Z,97501.19
2022-08-07T02:32:02.061Z,97496.41
2022-08-07T02:33:09.469Z,97499.59
2022-08-07T02:34:17.205Z,97499.38
2022-08-07T02:35:20.506Z,97503.03
2022-08-07T02:36:42.785Z,97493.53
2022-08-07T02:37:48.419Z,97498.81
2022-08-07T02:38:56.721Z,97492.47
2022-08-07T02:40:02.427Z,97494.88
2022-08-07T02:41:22.367Z,97487.97
2022-08-07T02:42:35.709Z,97486.94
2022-08-07T02:43:39.704Z,97489.81
2022-08-07T02:44:48.021Z,97482.94
2022-08-07T02:45:58.127Z,97485.25
2022-08-07T02:47:02.942Z,97484.69
2022-08-07T02:48:10.021Z,97487.34
2022-08-07T02:49:12.322Z,97482.63
2022-08-07T02:50:35.300Z,97485.03
2022-08-07T02:51:49.680Z,97485.03
2022-08-07T02:53:14.233Z,97474.69
2022-08-07T02:54:17.101Z,97477.16
2022-08-07T02:55:27.967Z,97481.66
2022-08-07T02:56:44.396Z,97476.38
2022-08-07T02:57:49.285Z,97472.44
2022-08-07T02:58:55.159Z,97478.28
2022-08-07T03:00:01.283Z,97475.41
2022-08-07T03:01:16.005Z,97477.00
2022-08-07T03:02:21.675Z,97475.97
2022-08-07T03:03:25.238Z,97475.16
2022-08-07T03:04:32.220Z,97477.00
2022-08-07T03:05:37.112Z,97474.13
2022-08-07T03:06:40.874Z,97468.84
2022-08-07T03:08:07.608Z,97470.41
2022-08-07T03:09:11.343Z,97472.03
2022-08-07T03:10:14.534Z,97470.97
2022-08-07T03:11:16.843Z,97468.34
2022-08-07T03:12:21.973Z,97467.53
2022-08-07T03:13:24.811Z,97467.53
2022-08-07T03:14:28.687Z,97469.16
2022-08-07T03:15:55.573Z,97467.53
2022-08-07T03:16:52.827Z,97470.91
2022-08-07T03:17:54.771Z,97469.88
2022-08-07T03:18:56.874Z,97468.84
2022-08-07T03:19:59.004Z,97465.13
2022-08-07T03:21:01.954Z,97463.31
2022-08-07T03:22:06.424Z,97460.91
2022-08-07T03:23:18.898Z,97466.44
2022-08-07T03:24:27.270Z,97454.72
2022-08-07T03:25:32.493Z,97460.97
2022-08-07T03:26:43.125Z,97456.41
2022-08-07T03:28:08.848Z,97454.78
2022-08-07T03:29:14.774Z,97464.56
2022-08-07T03:30:17.114Z,97467.44
2022-08-07T03:31:23.723Z,97452.06
2022-08-07T03:32:29.849Z,97457.13
2022-08-07T03:33:40.207Z,97461.59
2022-08-07T03:34:47.292Z,97457.91
2022-08-07T03:36:03.136Z,97450.53
2022-08-07T03:37:12.167Z,97451.09
2022-08-07T03:38:15.577Z,97461.22
2022-08-07T03:39:18.278Z,97456.50
2022-08-07T03:40:40.287Z,97448.31
2022-08-07T03:41:50.711Z,97450.72
2022-08-07T03:42:53.066Z,97450.16
2022-08-07T03:43:57.085Z,97453.75
2022-08-07T03:44:59.762Z,97452.41
2022-08-07T03:46:04.133Z,97450.44
2022-08-07T03:47:14.739Z,97459.75
2022-08-07T03:48:16.775Z,97451.56
2022-08-07T03:49:18.664Z,97454.78
2022-08-07T03:50:23.064Z,97456.97
2022-08-07T03:51:30.910Z,97452.81
2022-08-07T03:52:48.852Z,97454.41
2022-08-07T03:54:32.965Z,97453.38
2022-08-07T03:55:13.193Z,97448.09
2022-08-07T03:56:32.566Z,97449.13
2022-08-07T03:58:34.531Z,97450.16
2022-08-07T03:59:08.746Z,97446.72
2022-08-07T04:00:14.977Z,97456.50
2022-08-07T04:01:17.699Z,97458.09
2022-08-07T04:02:20.941Z,97456.25
2022-08-07T04:03:22.795Z,97459.69
2022-08-07T04:04:25.176Z,97454.91
2022-08-07T04:05:39.673Z,97462.03
2022-08-07T04:06:44.473Z,97455.69
2022-08-07T04:07:51.044Z,97456.50
2022-08-07T04:08:54.480Z,97458.09
2022-08-07T04:09:58.185Z,97462.34
2022-08-07T04:12:24.146Z,97459.69
2022-08-07T04:12:28.914Z,97462.03
2022-08-07T04:14:09.981Z,97457.78
2022-08-07T04:14:53.877Z,97455.34
2022-08-07T04:15:58.362Z,97457.69
2022-08-07T04:17:00.256Z,97456.28
2022-08-07T04:18:57.613Z,97455.28
2022-08-07T04:19:51.065Z,97461.69
2022-08-07T04:20:54.836Z,97465.13
2022-08-07T04:21:59.306Z,97458.81
2022-08-07T04:23:06.634Z,97457.19
2022-08-07T04:24:10.830Z,97460.06
2022-08-07T04:25:39.130Z,97459.03
2022-08-07T04:26:43.736Z,97461.13
2022-08-07T04:27:59.121Z,97461.13
2022-08-07T04:29:03.019Z,97459.75
2022-08-07T04:30:11.923Z,97457.91
2022-08-07T04:32:02.306Z,97462.16
2022-08-07T04:32:48.454Z,97459.50
2022-08-07T04:34:00.695Z,97459.50
2022-08-07T04:35:05.381Z,97463.53
2022-08-07T04:36:10.850Z,97462.72
2022-08-07T04:37:20.223Z,97455.84
2022-08-07T04:38:22.425Z,97466.88
2022-08-07T04:39:26.290Z,97463.66
2022-08-07T04:40:31.293Z,97461.25
2022-08-07T04:41:36.784Z,97467.38
2022-08-07T04:42:38.971Z,97468.41
2022-08-07T04:44:13.091Z,97463.66
2022-08-07T04:45:09.039Z,97461.59
2022-08-07T04:46:20.088Z,97463.19
2022-08-07T04:47:57.357Z,97463.19
2022-08-07T04:49:17.779Z,97467.69
2022-08-07T04:50:22.282Z,97465.06
2022-08-07T04:51:45.653Z,97468.50
2022-08-07T04:52:59.706Z,97464.00
2022-08-07T04:54:11.369Z,97460.56
2022-08-07T04:58:09.596Z,97465.63
2022-08-07T04:58:14.162Z,97472.97
2022-08-07T04:58:49.603Z,97471.03
2022-08-07T05:00:11.170Z,97466.38
2022-08-07T05:01:32.629Z,97464.28
2022-08-07T05:02:43.564Z,97471.53
2022-08-07T05:04:06.375Z,97476.56
2022-08-07T05:05:54.473Z,97464.00
2022-08-07T05:06:51.805Z,97473.75
2022-08-07T05:07:55.604Z,97469.59
2022-08-07T05:09:03.363Z,97473.06
2022-08-07T05:10:05.253Z,97461.41
2022-08-07T05:11:58.454Z,97465.13
2022-08-07T05:14:53.404Z,97467.34
2022-08-07T05:14:55.449Z,97462.88
2022-08-07T05:16:00.225Z,97464.00
2022-08-07T05:17:11.881Z,97467.19
2022-08-07T05:18:29.957Z,97470.41
2022-08-07T05:19:45.153Z,97471.53
2022-08-07T05:20:50.264Z,97468.16
2022-08-07T05:21:59.429Z,97468.72
2022-08-07T05:23:16.142Z,97474.56
2022-08-07T05:24:19.356Z,97468.50
2022-08-07T05:25:54.424Z,97473.78
2022-08-07T05:26:52.450Z,97466.41
2022-08-07T05:28:03.202Z,97471.94
2022-08-07T05:29:20.574Z,97473.28
2022-08-07T05:30:32.654Z,97471.47
2022-08-07T05:31:39.553Z,97477.31
2022-08-07T05:32:41.730Z,97481.56
2022-08-07T05:34:01.004Z,97482.94
2022-08-07T05:35:08.878Z,97472.34
2022-08-07T05:36:12.056Z,97481.91
2022-08-07T05:37:15.680Z,97474.75
2022-08-07T05:39:00.839Z,97480.84
2022-08-07T05:40:16.829Z,97471.88
2022-08-07T05:41:15.628Z,97476.13
2022-08-07T05:42:34.346Z,97480.38
2022-08-07T05:43:50.161Z,97476.69
2022-08-07T05:45:14.558Z,97481.50
2022-08-07T05:46:23.454Z,97472.50
2022-08-07T05:47:38.553Z,97481.81
2022-08-07T05:48:59.011Z,97477.34
2022-08-07T05:50:02.386Z,97475.25
2022-08-07T05:51:04.482Z,97473.38
2022-08-07T05:52:06.476Z,97482.94
2022-08-07T05:54:12.472Z,97480.84
2022-08-07T05:54:53.709Z,97483.66
2022-08-07T05:56:03.452Z,97480.94
2022-08-07T05:57:08.617Z,97478.47
2022-08-07T05:58:12.068Z,97478.34
2022-08-07T05:59:15.549Z,97482.84
2022-08-07T06:00:18.008Z,97472.97
2022-08-07T06:01:20.456Z,97475.53
2022-08-07T06:02:28.804Z,97469.91
2022-08-07T06:03:53.265Z,97478.91
2022-08-07T06:04:55.433Z,97472.00
2022-08-07T06:05:58.187Z,97469.69
2022-08-07T06:07:04.570Z,97472.97
2022-08-07T06:08:21.561Z,97472.03
2022-08-07T06:10:03.833Z,97472.69
2022-08-07T06:10:51.411Z,97473.47
2022-08-07T06:11:58.112Z,97470.59
2022-08-07T06:13:00.659Z,97464.19
2022-08-07T06:14:12.437Z,97471.19
2022-08-07T06:15:39.127Z,97470.19
2022-08-07T06:16:50.207Z,97466.81
2022-08-07T06:17:54.999Z,97464.50
2022-08-07T06:18:58.095Z,97464.50
2022-08-07T06:20:04.176Z,97470.91
2022-08-07T06:22:14.716Z,97472.84
2022-08-07T06:22:29.338Z,97466.81
2022-08-07T06:24:38.526Z,97471.88
2022-08-07T06:24:58.480Z,97471.97
2022-08-07T06:26:04.263Z,97475.94
2022-08-07T06:27:06.449Z,97467.53
2022-08-07T06:28:14.174Z,97483.16
2022-08-07T06:29:16.685Z,97477.63
2022-08-07T06:30:32.145Z,97468.41
2022-08-07T06:31:49.714Z,97473.13
2022-08-07T06:32:52.591Z,97473.94
2022-08-07T06:33:54.905Z,97473.13
2022-08-07T06:34:56.757Z,97476.03
2022-08-07T06:36:12.103Z,97470.97
2022-08-07T06:37:17.262Z,97472.00
2022-08-07T06:38:22.633Z,97472.34
2022-08-07T06:40:16.867Z,97469.78
2022-08-07T06:40:55.307Z,97469.28
2022-08-07T06:42:03.614Z,97471.38
2022-08-07T06:43:07.198Z,97466.81
2022-08-07T06:44:24.382Z,97468.16
2022-08-07T06:45:26.305Z,97466.88
2022-08-07T06:46:35.031Z,97476.19
2022-08-07T06:47:48.032Z,97475.69
2022-08-07T06:48:59.127Z,97474.16
2022-08-07T06:50:01.188Z,97474.72
2022-08-07T06:51:08.251Z,97467.31
2022-08-07T06:52:13.005Z,97473.44
2022-08-07T06:53:18.671Z,97471.59
2022-08-07T06:55:31.676Z,97481.06
2022-08-07T06:56:02.143Z,97479.69
2022-08-07T06:57:04.875Z,97477.03
2022-08-07T06:58:09.529Z,97477.13
2022-08-07T07:00:14.595Z,97474.22
2022-08-07T07:00:39.537Z,97468.94
2022-08-07T07:01:50.585Z,97469.50
2022-08-07T07:02:54.463Z,97476.88
2022-08-07T07:04:16.404Z,97471.09
2022-08-07T07:06:03.947Z,97471.41
2022-08-07T07:07:00.507Z,97468.56
2022-08-07T07:08:04.151Z,97478.69
2022-08-07T07:09:23.327Z,97470.22
2022-08-07T07:10:29.971Z,97472.97
2022-08-07T07:12:07.646Z,97470.31
2022-08-07T07:12:59.005Z,97462.38
2022-08-07T07:14:08.304Z,97464.22
2022-08-07T07:15:26.334Z,97463.72
2022-08-07T07:16:45.247Z,97466.59
2022-08-07T07:17:52.566Z,97455.53
2022-08-07T07:18:59.776Z,97462.41
2022-08-07T07:20:12.169Z,97466.69
2022-08-07T07:21:20.010Z,97469.88
2022-08-07T07:22:36.008Z,97462.75
2022-08-07T07:24:09.210Z,97454.56
2022-08-07T07:26:30.660Z,97456.19
2022-08-07T07:26:36.883Z,97454.88
2022-08-07T07:28:01.920Z,97451.44
2022-08-07T07:29:39.887Z,97450.94
2022-08-07T07:30:38.721Z,97452.28
2022-08-07T07:31:44.596Z,97460.78
2022-08-07T07:32:48.717Z,97454.38
2022-08-07T07:33:57.178Z,97451.25
2022-08-07T07:35:00.680Z,97455.75
2022-08-07T07:36:12.861Z,97456.56
2022-08-07T07:37:45.162Z,97459.19
2022-08-07T07:38:39.356Z,97454.13
2022-08-07T07:39:52.027Z,97462.88
2022-08-07T07:41:02.216Z,97456.56
2022-08-07T07:42:13.287Z,97457.03
2022-08-07T07:43:18.674Z,97453.28
2022-08-07T07:44:29.321Z,97458.56
2022-08-07T07:46:39.905Z,97456.19
2022-08-07T07:47:04.277Z,97459.41
2022-08-07T07:48:24.106Z,97449.91
2022-08-07T07:50:33.517Z,97449.91
2022-08-07T07:51:02.224Z,97447.00
2022-08-07T07:52:04.109Z,97447.00
2022-08-07T07:53:20.535Z,97443.56
2022-08-07T07:54:26.619Z,97447.25
2022-08-07T07:55:37.662Z,97450.94
2022-08-07T07:56:48.861Z,97442.50
2022-08-07T07:57:58.194Z,97444.88
2022-08-07T07:59:01.589Z,97451.56
2022-08-07T08:00:04.506Z,97446.00
2022-08-07T08:02:02.513Z,97447.84
2022-08-07T08:02:34.225Z,97442.56
2022-08-07T08:04:10.736Z,97443.06
2022-08-07T08:05:02.274Z,97443.63
2022-08-07T08:06:06.818Z,97445.19
2022-08-07T08:07:14.025Z,97440.69
2022-08-07T08:08:35.417Z,97443.91
2022-08-07T08:09:52.359Z,97440.22
2022-08-07T08:11:02.821Z,97443.41
2022-08-07T08:12:06.172Z,97437.59
2022-08-07T08:13:10.395Z,97442.66
2022-08-07T08:14:20.239Z,97432.31
2022-08-07T08:15:27.801Z,97442.44
2022-08-07T08:16:51.465Z,97440.09
2022-08-07T08:18:36.481Z,97439.84
2022-08-07T08:20:16.319Z,97447.78
2022-08-07T08:20:41.005Z,97440.94
2022-08-07T08:22:07.842Z,97439.63
2022-08-07T08:23:29.201Z,97440.97
2022-08-07T08:25:04.759Z,97438.88
2022-08-07T08:26:37.416Z,97435.47
2022-08-07T08:27:40.354Z,97437.88
2022-08-07T08:28:46.340Z,97433.13
2022-08-07T08:29:55.663Z,97437.94
2022-08-07T08:30:59.297Z,97445.63
2022-08-07T08:32:18.567Z,97438.22
2022-08-07T08:33:28.739Z,97432.19
2022-08-07T08:34:35.894Z,97441.47
2022-08-07T08:35:39.594Z,97431.41
2022-08-07T08:36:56.179Z,97434.88
2022-08-07T08:38:03.558Z,97441.53
2022-08-07T08:39:09.200Z,97436.22
2022-08-07T08:40:28.624Z,97439.44
2022-08-07T08:41:57.690Z,97433.84
2022-08-07T08:43:18.000Z,97438.91
2022-08-07T08:44:29.459Z,97429.66
2022-08-07T08:45:59.059Z,97436.03
2022-08-07T08:47:10.018Z,97434.47
2022-08-07T08:48:22.233Z,97438.53
2022-08-07T08:50:02.126Z,97443.31
2022-08-07T08:50:58.948Z,97439.09
2022-08-07T08:52:13.968Z,97437.28
2022-08-07T08:53:29.477Z,97433.00
2022-08-07T08:54:48.407Z,97441.75
2022-08-07T08:55:58.804Z,97439.09
2022-08-07T08:57:06.455Z,97443.38
2022-08-07T08:58:29.316Z,97438.31
2022-08-07T08:59:41.789Z,97437.81
2022-08-07T09:00:52.828Z,97437.53
2022-08-07T09:02:13.316Z,97435.97
2022-08-07T09:03:21.305Z,97441.81
2022-08-07T09:04:47.196Z,97437.06
2022-08-07T09:05:56.104Z,97436.81
2022-08-07T09:07:01.479Z,97434.16
2022-08-07T09:08:11.680Z,97433.31
2022-08-07T09:09:33.324Z,97443.69
2022-08-07T09:10:45.184Z,97440.78
2022-08-07T09:12:20.118Z,97432.59
2022-08-07T09:13:58.483Z,97440.53
2022-08-07T09:15:00.860Z,97430.72
2022-08-07T09:16:29.861Z,97433.38
2022-08-07T09:17:33.980Z,97431.75
2022-08-07T09:19:51.168Z,97436.81
2022-08-07T09:20:58.536Z,97433.91
2022-08-07T09:22:39.399Z,97433.41
2022-08-07T09:24:33.733Z,97437.91
2022-08-07T09:25:14.767Z,97438.69
2022-08-07T09:26:28.167Z,97435.25
2022-08-07T09:27:38.304Z,97442.97
2022-08-07T09:30:02.250Z,97432.31
2022-08-07T09:30:25.580Z,97437.13
2022-08-07T09:31:38.597Z,97438.69
2022-08-07T09:32:59.197Z,97440.31
2022-08-07T09:34:27.342Z,97437.91
2022-08-07T09:36:03.238Z,97433.13
2022-08-07T09:37:15.011Z,97427.31
2022-08-07T09:38:40.104Z,97429.94
2022-08-07T09:39:59.471Z,97425.72
2022-08-07T09:41:04.276Z,97427.06
2022-08-07T09:42:25.301Z,97428.38
2022-08-07T09:44:05.570Z,97424.41
2022-08-07T09:47:27.625Z,97426.28
2022-08-07T09:47:52.426Z,97422.84
2022-08-07T09:48:19.066Z,97422.31
2022-08-07T09:50:00.977Z,97414.66
2022-08-07T09:51:26.094Z,97419.75
2022-08-07T09:52:52.522Z,97423.47
2022-08-07T09:54:02.664Z,97417.91
2022-08-07T09:55:29.840Z,97421.09
2022-08-07T09:56:41.907Z,97420.34
2022-08-07T09:58:02.556Z,97421.63
2022-08-07T09:59:14.607Z,97415.78
2022-08-07T10:00:18.995Z,97419.75
2022-08-07T10:01:52.185Z,97419.75
2022-08-07T10:04:03.694Z,97416.56
2022-08-07T10:04:53.379Z,97419.50
2022-08-07T10:06:05.390Z,97425.66
2022-08-07T10:07:24.260Z,97427.75
2022-08-07T10:08:27.990Z,97424.59
2022-08-07T10:09:59.192Z,97423.78
2022-08-07T10:11:17.102Z,97425.13
2022-08-07T10:12:54.622Z,97422.47
2022-08-07T10:14:01.949Z,97418.50
2022-08-07T10:15:37.864Z,97416.66
2022-08-07T10:17:01.111Z,97414.00
2022-08-07T10:18:06.761Z,97411.84
2022-08-07T10:19:19.809Z,97406.53
2022-08-07T10:20:30.606Z,97406.84
2022-08-07T10:22:12.196Z,97417.75
2022-08-07T10:24:05.007Z,97405.28
2022-08-07T10:24:51.419Z,97404.50
2022-08-07T10:25:57.985Z,97408.50
2022-08-07T10:27:20.528Z,97398.19
2022-08-07T10:28:39.881Z,97398.47
2022-08-07T10:30:06.349Z,97403.78
2022-08-07T10:31:22.456Z,97392.88
2022-08-07T10:32:52.735Z,97398.75
2022-08-07T10:34:05.973Z,97395.53
2022-08-07T10:35:20.192Z,97392.63
2022-08-07T10:36:40.591Z,97393.44
2022-08-07T10:38:09.850Z,97389.72
2022-08-07T10:39:25.723Z,97387.59
2022-08-07T10:41:04.354Z,97382.31
2022-08-07T10:42:31.283Z,97381.50
2022-08-07T10:44:02.304Z,97379.94
2022-08-07T10:45:19.595Z,97378.34
2022-08-07T10:46:53.860Z,97382.34
2022-08-07T10:48:08.281Z,97373.31
2022-08-07T10:49:16.389Z,97377.31
2022-08-07T10:50:26.598Z,97383.13
2022-08-07T10:52:01.441Z,97374.09
2022-08-07T10:53:08.864Z,97376.22
2022-08-07T10:54:18.164Z,97372.50
2022-08-07T10:55:38.639Z,97367.72
2022-08-07T10:56:54.523Z,97372.00
2022-08-07T10:57:56.560Z,97376.50
2022-08-07T10:59:21.281Z,97378.09
2022-08-07T11:00:36.986Z,97373.31
2022-08-07T11:01:51.393Z,97375.97
2022-08-07T11:03:20.472Z,97372.81
2022-08-07T11:04:42.195Z,97374.91
2022-08-07T11:05:53.259Z,97375.47
2022-08-07T11:07:59.045Z,97371.75
2022-08-07T11:09:00.032Z,97371.22
2022-08-07T11:10:07.042Z,97370.94
2022-08-07T11:11:20.834Z,97366.16
2022-08-07T11:12:43.467Z,97362.97
2022-08-07T11:14:45.144Z,97368.28
2022-08-07T11:15:18.165Z,97361.38
2022-08-07T11:16:40.212Z,97364.28
2022-08-07T11:17:48.433Z,97368.56
2022-08-07T11:19:06.924Z,97364.28
2022-08-07T11:20:18.161Z,97364.28
2022-08-07T11:21:27.504Z,97354.75
2022-08-07T11:22:51.701Z,97356.31
2022-08-07T11:24:11.860Z,97362.44
2022-08-07T11:25:16.875Z,97365.09
2022-08-07T11:26:27.212Z,97359.25
2022-08-07T11:28:02.513Z,97361.88
2022-08-07T11:29:13.220Z,97362.66
2022-08-07T11:30:41.955Z,97361.88
2022-08-07T11:31:47.193Z,97354.97
2022-08-07T11:33:01.898Z,97360.00
2022-08-07T11:34:16.308Z,97358.16
2022-08-07T11:35:26.730Z,97350.75
2022-08-07T11:36:47.372Z,97361.91
2022-08-07T11:38:12.457Z,97354.72
2022-08-07T11:39:20.916Z,97361.09
2022-08-07T11:40:54.259Z,97356.59
2022-08-07T11:42:07.885Z,97353.69
2022-08-07T11:43:54.587Z,97351.28
2022-08-07T11:44:58.983Z,97351.53
2022-08-07T11:46:16.931Z,97353.13
2022-08-07T11:47:55.903Z,97351.53
2022-08-07T11:49:50.316Z,97349.66
2022-08-07T11:50:57.974Z,97349.94
2022-08-07T11:52:19.669Z,97358.16
2022-08-07T11:54:01.255Z,97354.97
2022-08-07T11:56:15.726Z,97353.38
2022-08-07T11:56:59.152Z,97351.50
2022-08-07T11:58:04.025Z,97341.41
2022-08-07T12:00:11.140Z,97354.69
2022-08-07T12:01:02.654Z,97345.94
2022-08-07T12:02:30.447Z,97342.75
2022-08-07T12:03:46.396Z,97343.00
2022-08-07T12:04:48.474Z,97349.91
2022-08-07T12:06:36.303Z,97334.25
2022-08-07T12:07:38.891Z,97340.88
2022-08-07T12:08:52.839Z,97342.47
2022-08-07T12:10:05.962Z,97339.78
2022-08-07T12:11:21.128Z,97341.91
2022-08-07T12:12:29.210Z,97342.97
2022-08-07T12:13:47.811Z,97342.19
2022-08-07T12:15:00.604Z,97346.13
2022-08-07T12:16:11.471Z,97339.72
2022-08-07T12:17:20.374Z,97340.78
2022-08-07T12:18:45.451Z,97346.91
2022-08-07T12:20:06.951Z,97337.88
2022-08-07T12:21:14.948Z,97344.00
2022-08-07T12:22:39.083Z,97355.66
2022-08-07T12:24:07.690Z,97348.50
2022-08-07T12:26:05.473Z,97348.72
2022-08-07T12:27:04.259Z,97345.00
2022-08-07T12:28:31.713Z,97349.50
2022-08-07T12:29:42.316Z,97346.59
2022-08-07T12:30:47.014Z,97344.50
2022-08-07T12:32:04.133Z,97346.06
2022-08-07T12:33:28.297Z,97348.72
2022-08-07T12:34:34.961Z,97347.69
2022-08-07T12:35:37.420Z,97352.75
2022-08-07T12:36:41.271Z,97345.28
2022-08-07T12:38:11.596Z,97347.69
2022-08-07T12:39:44.160Z,97348.47
2022-08-07T12:40:51.029Z,97349.25
2022-08-07T12:41:54.799Z,97355.13
2022-08-07T12:43:01.311Z,97346.63
2022-08-07T12:44:17.355Z,97342.91
2022-08-07T12:45:21.538Z,97345.56
2022-08-07T12:46:32.309Z,97345.81
2022-08-07T12:47:37.484Z,97343.41
2022-08-07T12:48:53.038Z,97339.97
2022-08-07T12:50:34.372Z,97339.97
2022-08-07T12:51:51.131Z,97345.03
2022-08-07T12:53:05.196Z,97337.59
2022-08-07T12:54:37.904Z,97345.56
2022-08-07T12:56:02.428Z,97346.63
2022-08-07T12:57:09.346Z,97344.50
2022-08-07T12:58:14.978Z,97343.66
2022-08-07T12:59:20.310Z,97336.50
2022-08-07T13:00:32.553Z,97344.47
2022-08-07T13:01:43.302Z,97347.13
2022-08-07T13:02:47.135Z,97345.78
2022-08-07T13:04:04.708Z,97349.25
2022-08-07T13:06:02.950Z,97345.78
2022-08-07T13:07:01.094Z,97340.22
2022-08-07T13:08:14.231Z,97342.63
2022-08-07T13:10:21.618Z,97346.63
2022-08-07T13:11:08.595Z,97346.88
2022-08-07T13:12:29.132Z,97342.38
2022-08-07T13:13:48.262Z,97353.00
2022-08-07T13:14:59.468Z,97347.44
2022-08-07T13:16:01.219Z,97349.00
2022-08-07T13:17:03.048Z,97340.78
2022-08-07T13:18:08.836Z,97346.34
2022-08-07T13:19:18.184Z,97344.50
2022-08-07T13:20:27.817Z,97342.91
2022-08-07T13:21:37.185Z,97338.09
2022-08-07T13:24:01.654Z,97341.31
2022-08-07T13:24:52.256Z,97345.25
2022-08-07T13:26:00.863Z,97344.75
2022-08-07T13:27:23.110Z,97345.53
2022-08-07T13:28:41.825Z,97341.56
2022-08-07T13:30:04.501Z,97338.09
2022-08-07T13:31:13.129Z,97339.19
2022-08-07T13:32:31.877Z,97340.75
2022-08-07T13:34:32.621Z,97334.91
2022-08-07T13:35:59.716Z,97330.16
2022-08-07T13:37:19.859Z,97335.97
2022-08-07T13:38:30.493Z,97333.56
2022-08-07T13:40:33.117Z,97342.84
2022-08-07T13:41:08.479Z,97334.09
2022-08-07T13:42:21.417Z,97334.88
2022-08-07T13:43:27.747Z,97333.03
2022-08-07T13:44:34.627Z,97334.88
2022-08-07T13:46:11.801Z,97328.78
2022-08-07T13:47:04.807Z,97332.22
2022-08-07T13:48:27.431Z,97328.78
2022-08-07T13:50:33.800Z,97325.34
2022-08-07T13:51:27.026Z,97333.31
2022-08-07T13:52:32.444Z,97333.31
2022-08-07T13:54:01.511Z,97332.22
2022-08-07T13:55:10.741Z,97331.69
2022-08-07T13:56:18.173Z,97326.88
2022-08-07T13:57:25.668Z,97333.25
2022-08-07T13:59:00.310Z,97335.38
2022-08-07T14:00:04.090Z,97331.88
2022-08-07T14:01:13.679Z,97328.69
2022-08-07T14:02:21.723Z,97329.50
2022-08-07T14:04:05.482Z,97331.34
2022-08-07T14:05:08.065Z,97329.75
2022-08-07T14:06:11.921Z,97332.41
2022-08-07T14:07:14.267Z,97329.44
2022-08-07T14:08:18.357Z,97335.81
2022-08-07T14:10:05.150Z,97328.38
2022-08-07T14:11:01.837Z,97329.44
2022-08-07T14:12:27.544Z,97323.34
2022-08-07T14:13:33.839Z,97325.72
2022-08-07T14:15:01.964Z,97320.16
2022-08-07T14:16:05.612Z,97317.25
2022-08-07T14:18:12.097Z,97320.44
2022-08-07T14:18:57.329Z,97321.25
2022-08-07T14:20:43.458Z,97314.59
2022-08-07T14:22:03.294Z,97322.06
2022-08-07T14:23:09.308Z,97316.50
2022-08-07T14:24:15.796Z,97316.81